createdAt,value
2023-04-24T00:00:06.981Z,98956.22
2023-04-24T00:02:34.511Z,98952.75
2023-04-24T00:05:03.619Z,98961.09
2023-04-24T00:07:31.268Z,98958.13
2023-04-24T00:09:58.565Z,98949.56
2023-04-24T00:12:26.146Z,98950.63
2023-04-24T00:14:53.813Z,98955.72
2023-04-24T00:17:21.763Z,98960.91
2023-04-24T00:19:49.484Z,98957.97
2023-04-24T00:22:16.871Z,98956.66
2023-04-24T00:24:44.727Z,98948.81
2023-04-24T00:27:11.864Z,98945.56
2023-04-24T00:29:39.316Z,98950.00
2023-04-24T00:32:06.749Z,98941.66
2023-04-24T00:34:34.276Z,98947.50
2023-04-24T00:37:01.720Z,98937.53
2023-04-24T00:39:29.132Z,98936.66
2023-04-24T00:41:56.114Z,98932.44
2023-04-24T00:44:23.198Z,98921.34
2023-04-24T00:46:55.538Z,98928.34
2023-04-24T00:49:22.715Z,98934.22
2023-04-24T00:51:51.955Z,98921.78
2023-04-24T00:54:19.237Z,98923.16
2023-04-24T00:56:46.519Z,98913.47
2023-04-24T00:59:13.904Z,98911.28
2023-04-24T01:01:44.847Z,98913.97
2023-04-24T01:04:12.771Z,98901.16
2023-04-24T01:06:40.787Z,98900.69
2023-04-24T01:09:09.672Z,98896.47
2023-04-24T01:11:37.167Z,98896.75
2023-04-24T01:14:06.069Z,98893.19
2023-04-24T01:16:33.215Z,98893.41
2023-04-24T01:19:01.544Z,98892.31
2023-04-24T01:21:29.731Z,98883.25
2023-04-24T01:23:57.828Z,98887.88
2023-04-24T01:26:26.166Z,98873.16
2023-04-24T01:28:53.415Z,98879.53
2023-04-24T01:31:20.597Z,98877.91
2023-04-24T01:33:47.972Z,98864.56
2023-04-24T01:36:15.322Z,98867.66
2023-04-24T01:38:42.637Z,98854.28
2023-04-24T01:41:10.235Z,98856.81
2023-04-24T01:43:37.234Z,98853.25
2023-04-24T01:46:04.701Z,98858.44
2023-04-24T01:48:32.003Z,98853.53
2023-04-24T01:50:59.118Z,98847.78
2023-04-24T01:53:26.421Z,98847.16
2023-04-24T01:55:54.074Z,98839.19
2023-04-24T01:58:21.168Z,98843.50
2023-04-24T02:00:48.615Z,98837.50
2023-04-24T02:03:16.065Z,98836.34
2023-04-24T02:05:46.365Z,98827.81
2023-04-24T02:08:13.432Z,98819.06
2023-04-24T02:10:40.659Z,98814.97
2023-04-24T02:13:08.064Z,98816.56
2023-04-24T02:15:37.071Z,98813.59
2023-04-24T02:18:04.139Z,98815.03
2023-04-24T02:20:34.682Z,98815.03
2023-04-24T02:23:02.400Z,98806.84
2023-04-24T02:25:29.504Z,98811.75
2023-04-24T02:27:56.925Z,98806.31
2023-04-24T02:30:23.970Z,98805.47
2023-04-24T02:32:51.698Z,98790.72
2023-04-24T02:35:18.934Z,98786.38
2023-04-24T02:37:46.508Z,98763.72
2023-04-24T02:40:13.582Z,98781.81
2023-04-24T02:42:40.706Z,98774.72
2023-04-24T02:45:08.889Z,98775.78
2023-04-24T02:47:36.413Z,98768.94
2023-04-24T02:50:04.107Z,98762.13
2023-04-24T02:52:31.765Z,98762.41
2023-04-24T02:54:58.740Z,98756.13
2023-04-24T02:57:26.179Z,98755.56
2023-04-24T02:59:54.709Z,98760.47
2023-04-24T03:02:22.121Z,98753.09
2023-04-24T03:04:49.471Z,98753.06
2023-04-24T03:07:16.892Z,98747.63
2023-04-24T03:09:44.813Z,98753.06
2023-04-24T03:12:12.051Z,98751.44
2023-04-24T03:14:40.329Z,98759.91
2023-04-24T03:17:08.116Z,98748.06
2023-04-24T03:19:35.107Z,98750.94
2023-04-24T03:22:10.074Z,98749.56
2023-04-24T03:24:38.873Z,98740.50
2023-04-24T03:27:06.424Z,98750.63
2023-04-24T03:29:58.430Z,98740.31
2023-04-24T03:32:33.082Z,98738.78
2023-04-24T03:35:01.388Z,98737.38
2023-04-24T03:37:28.741Z,98723.91
2023-04-24T03:40:19.038Z,98729.38
2023-04-24T03:42:46.749Z,98717.81
2023-04-24T03:45:13.861Z,98720.66
2023-04-24T03:47:44.110Z,98723.38
2023-04-24T03:50:13.043Z,98710.03
2023-04-24T03:52:42.598Z,98707.94
2023-04-24T03:55:13.998Z,98704.69
2023-04-24T03:57:45.967Z,98700.13
2023-04-24T04:00:21.745Z,98691.50
2023-04-24T04:02:57.563Z,98691.19
2023-04-24T04:05:25.392Z,98679.47
2023-04-24T04:07:52.491Z,98678.66
2023-04-24T04:10:20.103Z,98676.34
2023-04-24T04:12:47.191Z,98677.81
2023-04-24T04:15:14.904Z,98679.56
2023-04-24T04:17:42.429Z,98676.00
2023-04-24T04:20:11.162Z,98672.13
2023-04-24T04:22:42.003Z,98667.94
2023-04-24T04:25:12.394Z,98662.84
2023-04-24T04:27:40.088Z,98660.00
2023-04-24T04:30:11.533Z,98658.25
2023-04-24T04:32:48.163Z,98659.22
2023-04-24T04:35:15.767Z,98653.44
2023-04-24T04:37:43.273Z,98646.81
2023-04-24T04:40:30.818Z,98641.66
2023-04-24T04:43:03.384Z,98639.50
2023-04-24T04:45:36.376Z,98633.72
2023-04-24T04:48:22.413Z,98622.69
2023-04-24T04:50:51.043Z,98622.78
2023-04-24T04:53:20.283Z,98604.25
2023-04-24T04:55:47.739Z,98598.50
2023-04-24T04:58:17.094Z,98594.72
2023-04-24T05:00:45.683Z,98586.44
2023-04-24T05:03:21.075Z,98586.81
2023-04-24T05:05:55.332Z,98588.84
2023-04-24T05:08:27.459Z,98583.94
2023-04-24T05:10:55.774Z,98586.91
2023-04-24T05:13:32.159Z,98580.28
2023-04-24T05:16:11.215Z,98579.47
2023-04-24T05:18:39.686Z,98564.50
2023-04-24T05:21:08.743Z,98562.09
2023-04-24T05:23:38.553Z,98561.19
2023-04-24T05:26:07.723Z,98559.63
2023-04-24T05:28:37.237Z,98553.53
2023-04-24T05:31:08.755Z,98558.28
2023-04-24T05:33:36.255Z,98545.63
2023-04-24T05:36:03.977Z,98545.22
2023-04-24T05:38:31.153Z,98544.56
2023-04-24T05:40:58.930Z,98550.53
2023-04-24T05:43:26.136Z,98532.34
2023-04-24T05:45:54.218Z,98526.34
2023-04-24T05:48:23.411Z,98525.75
2023-04-24T05:50:51.462Z,98510.47
2023-04-24T05:53:19.134Z,98507.72
2023-04-24T05:55:46.312Z,98505.44
2023-04-24T05:58:13.470Z,98501.06
2023-04-24T06:00:43.230Z,98498.66
2023-04-24T06:03:10.916Z,98491.09
2023-04-24T06:05:38.228Z,98489.16
2023-04-24T06:08:05.483Z,98477.34
2023-04-24T06:10:36.872Z,98488.84
2023-04-24T06:13:05.568Z,98476.00
2023-04-24T06:15:34.712Z,98466.88
2023-04-24T06:18:07.981Z,98456.19
2023-04-24T06:20:36.800Z,98453.78
2023-04-24T06:23:04.608Z,98446.47
2023-04-24T06:25:33.776Z,98446.88
2023-04-24T06:28:01.180Z,98436.56
2023-04-24T06:30:30.764Z,98430.19
2023-04-24T06:33:03.144Z,98404.94
2023-04-24T06:35:39.066Z,98405.72
2023-04-24T06:38:06.912Z,98410.72
2023-04-24T06:40:34.281Z,98407.19
2023-04-24T06:43:03.474Z,98396.34
2023-04-24T06:45:30.868Z,98395.97
2023-04-24T06:47:58.103Z,98374.31
2023-04-24T06:50:26.143Z,98359.66
2023-04-24T06:52:53.562Z,98356.94
2023-04-24T06:55:20.632Z,98353.19
2023-04-24T06:57:48.116Z,98370.13
2023-04-24T07:00:16.538Z,98367.84
2023-04-24T07:02:44.258Z,98360.50
2023-04-24T07:05:13.363Z,98362.50
2023-04-24T07:07:41.008Z,98346.34
2023-04-24T07:10:09.305Z,98351.75
2023-04-24T07:12:36.797Z,98346.09
2023-04-24T07:15:04.713Z,98344.78
2023-04-24T07:17:32.027Z,98340.81
2023-04-24T07:19:59.480Z,98335.38
2023-04-24T07:22:26.862Z,98326.09
2023-04-24T07:24:54.371Z,98324.63
2023-04-24T07:27:21.602Z,98315.28
2023-04-24T07:29:49.173Z,98307.34
2023-04-24T07:32:16.512Z,98303.59
2023-04-24T07:34:43.559Z,98289.75
2023-04-24T07:37:11.263Z,98288.50
2023-04-24T07:39:38.365Z,98280.84
2023-04-24T07:42:05.503Z,98283.72
2023-04-24T07:44:32.901Z,98278.63
2023-04-24T07:47:00.520Z,98277.13
2023-04-24T07:49:28.889Z,98271.63
2023-04-24T07:51:56.484Z,98257.13
2023-04-24T07:54:24.119Z,98256.88
2023-04-24T07:56:51.485Z,98242.97
2023-04-24T07:59:21.628Z,98242.75
2023-04-24T08:01:48.880Z,98237.66
2023-04-24T08:04:16.814Z,98233.09
2023-04-24T08:06:44.336Z,98231.03
2023-04-24T08:09:11.434Z,98223.91
2023-04-24T08:11:38.550Z,98218.75
2023-04-24T08:14:05.858Z,98214.38
2023-04-24T08:16:34.142Z,98210.53
2023-04-24T08:19:01.562Z,98207.44
2023-04-24T08:21:28.863Z,98199.88
2023-04-24T08:23:56.207Z,98199.72
2023-04-24T08:26:23.552Z,98189.03
2023-04-24T08:28:50.712Z,98186.16
2023-04-24T08:31:18.005Z,98169.56
2023-04-24T08:33:46.872Z,98168.41
2023-04-24T08:36:14.072Z,98172.47
2023-04-24T08:38:43.135Z,98165.69
2023-04-24T08:41:10.943Z,98159.84
2023-04-24T08:43:38.213Z,98150.25
2023-04-24T08:46:09.082Z,98136.47
2023-04-24T08:48:39.295Z,98132.22
2023-04-24T08:51:07.841Z,98127.25
2023-04-24T08:56:03.414Z,98121.59
2023-04-24T08:58:31.376Z,98114.34
2023-04-24T09:00:59.245Z,98107.69
2023-04-24T09:03:28.219Z,98104.50
2023-04-24T09:05:55.922Z,98106.25
2023-04-24T09:08:25.275Z,98096.22
2023-04-24T09:10:52.653Z,98091.09
2023-04-24T09:13:20.815Z,98094.91
2023-04-24T09:15:48.222Z,98081.81
2023-04-24T09:18:15.502Z,98082.91
2023-04-24T09:20:59.516Z,98077.44
2023-04-24T09:23:29.227Z,98078.25
2023-04-24T09:25:56.844Z,98069.53
2023-04-24T09:28:31.328Z,98062.69
2023-04-24T09:31:16.407Z,98061.06
2023-04-24T09:34:05.788Z,98067.31
2023-04-24T09:36:38.422Z,98061.84
2023-04-24T09:39:12.529Z,98059.13
2023-04-24T09:41:52.635Z,98054.22
2023-04-24T09:44:23.552Z,98051.50
2023-04-24T09:46:52.496Z,98043.56
2023-04-24T09:49:30.349Z,98042.75
2023-04-24T09:52:08.185Z,98053.41
2023-04-24T09:54:37.586Z,98044.94
2023-04-24T09:57:05.130Z,98036.16
2023-04-24T09:59:32.512Z,98028.78
2023-04-24T10:02:00.587Z,98030.97
2023-04-24T10:04:29.240Z,98027.72
2023-04-24T10:06:57.292Z,98018.97
2023-04-24T10:09:27.330Z,98020.97
2023-04-24T10:11:55.485Z,98016.38
2023-04-24T10:14:24.233Z,98013.34
2023-04-24T10:16:53.976Z,98019.03
2023-04-24T10:19:21.626Z,98012.16
2023-04-24T10:21:49.115Z,97998.97
2023-04-24T10:24:17.648Z,98001.06
2023-04-24T10:26:45.998Z,98003.69
2023-04-24T10:29:14.021Z,98008.81
2023-04-24T10:31:42.252Z,98001.13
2023-04-24T10:34:10.373Z,97995.38
2023-04-24T10:36:46.077Z,97992.94
2023-04-24T10:39:14.132Z,97994.38
2023-04-24T10:41:41.109Z,97997.16
2023-04-24T10:44:09.329Z,97990.16
2023-04-24T10:46:37.174Z,97984.19
2023-04-24T10:49:08.509Z,97979.09
2023-04-24T10:51:53.960Z,97981.56
2023-04-24T10:54:38.122Z,97968.44
2023-04-24T10:57:21.265Z,97970.00
2023-04-24T10:59:49.127Z,97963.97
2023-04-24T11:02:16.338Z,97970.75
2023-04-24T11:04:44.039Z,97961.66
2023-04-24T11:07:11.978Z,97958.75
2023-04-24T11:09:41.153Z,97958.25
2023-04-24T11:12:12.566Z,97955.59
2023-04-24T11:14:58.699Z,97949.59
2023-04-24T11:17:38.616Z,97948.16
2023-04-24T11:20:26.785Z,97944.81
2023-04-24T11:22:56.693Z,97936.09
2023-04-24T11:25:24.121Z,97935.06
2023-04-24T11:27:51.766Z,97935.13
2023-04-24T11:30:19.590Z,97936.91
2023-04-24T11:32:51.411Z,97921.44
2023-04-24T11:35:20.348Z,97918.00
2023-04-24T11:40:28.870Z,97915.00
2023-04-24T11:42:56.779Z,97910.03
2023-04-24T11:45:25.820Z,97902.81
2023-04-24T11:47:53.324Z,97900.19
2023-04-24T11:50:26.501Z,97897.00
2023-04-24T11:52:54.202Z,97894.59
2023-04-24T11:55:21.831Z,97897.41
2023-04-24T11:57:59.310Z,97889.03
2023-04-24T12:00:31.271Z,97884.09
2023-04-24T12:03:11.531Z,97886.88
2023-04-24T12:05:40.066Z,97880.97
2023-04-24T12:08:07.772Z,97873.63
2023-04-24T12:10:35.539Z,97870.13
2023-04-24T12:13:02.958Z,97881.88
2023-04-24T12:15:30.190Z,97873.44
2023-04-24T12:17:57.957Z,97866.41
2023-04-24T12:20:29.962Z,97868.06
2023-04-24T12:22:58.085Z,97856.97
2023-04-24T12:25:32.708Z,97857.63
2023-04-24T12:28:06.333Z,97858.81
2023-04-24T12:30:35.123Z,97859.44
2023-04-24T12:33:03.890Z,97857.06
2023-04-24T12:35:36.331Z,97856.28
2023-04-24T12:38:14.535Z,97857.13
2023-04-24T12:40:42.632Z,97858.28
2023-04-24T12:43:17.869Z,97843.59
2023-04-24T12:45:48.388Z,97848.00
2023-04-24T12:48:15.977Z,97850.16
2023-04-24T12:50:46.047Z,97845.84
2023-04-24T12:53:14.861Z,97845.06
2023-04-24T12:55:42.486Z,97847.78
2023-04-24T12:58:10.134Z,97848.66
2023-04-24T13:00:38.467Z,97845.94
2023-04-24T13:03:05.935Z,97843.50
2023-04-24T13:05:33.114Z,97841.09
2023-04-24T13:08:00.534Z,97844.41
2023-04-24T13:10:27.871Z,97839.28
2023-04-24T13:12:55.062Z,97841.75
2023-04-24T13:15:22.336Z,97846.41
2023-04-24T13:17:50.147Z,97840.69
2023-04-24T13:20:18.037Z,97840.97
2023-04-24T13:22:45.504Z,97835.84
2023-04-24T13:25:13.083Z,97839.38
2023-04-24T13:27:40.645Z,97842.66
2023-04-24T13:30:08.453Z,97841.28
2023-04-24T13:32:36.414Z,97852.72
2023-04-24T13:35:04.404Z,97842.34
2023-04-24T13:37:32.906Z,97858.38
2023-04-24T13:40:00.134Z,97859.75
2023-04-24T13:42:27.572Z,97861.38
2023-04-24T13:44:54.843Z,97861.09
2023-04-24T13:47:22.251Z,97865.16
2023-04-24T13:49:49.798Z,97873.88
2023-04-24T13:52:17.428Z,97873.63
2023-04-24T13:54:44.410Z,97870.88
2023-04-24T13:57:12.195Z,97866.53
2023-04-24T13:59:39.392Z,97870.06
2023-04-24T14:02:06.553Z,97854.56
2023-04-24T14:04:34.212Z,97866.53
2023-04-24T14:07:01.457Z,97860.00
2023-04-24T14:09:28.922Z,97871.19
2023-04-24T14:11:56.238Z,97878.53
2023-04-24T14:14:23.665Z,97876.63
2023-04-24T14:16:51.023Z,97867.91
2023-04-24T14:19:18.530Z,97861.09
2023-04-24T14:21:45.820Z,97864.91
2023-04-24T14:24:13.346Z,97867.63
2023-04-24T14:26:40.638Z,97860.81
2023-04-24T14:29:14.836Z,97863.28
2023-04-24T14:31:43.018Z,97861.66
2023-04-24T14:34:10.521Z,97865.19
2023-04-24T14:36:37.705Z,97853.50
2023-04-24T14:39:07.428Z,97858.97
2023-04-24T14:41:38.314Z,97846.72
2023-04-24T14:44:05.988Z,97849.72
2023-04-24T14:46:33.410Z,97830.97
2023-04-24T14:49:01.137Z,97837.22
2023-04-24T14:51:28.449Z,97824.47
2023-04-24T14:53:55.665Z,97828.53
2023-04-24T14:56:23.852Z,97818.47
2023-04-24T14:58:51.158Z,97811.69
2023-04-24T15:01:19.137Z,97807.34
2023-04-24T15:03:47.004Z,97800.56
2023-04-24T15:06:14.718Z,97801.06
2023-04-24T15:08:42.866Z,97796.72
2023-04-24T15:11:10.735Z,97788.88
2023-04-24T15:13:37.741Z,97782.88
2023-04-24T15:16:06.039Z,97782.59
2023-04-24T15:18:33.813Z,97771.44
2023-04-24T15:21:02.644Z,97772.78
2023-04-24T15:23:29.764Z,97771.94
2023-04-24T15:25:57.618Z,97760.81
2023-04-24T15:28:25.799Z,97760.28
2023-04-24T15:30:52.743Z,97756.97
2023-04-24T15:33:20.353Z,97745.84
2023-04-24T15:35:49.406Z,97750.97
2023-04-24T15:38:16.946Z,97746.09
2023-04-24T15:40:45.634Z,97746.88
2023-04-24T15:43:12.978Z,97740.84
2023-04-24T15:45:40.537Z,97735.91
2023-04-24T15:48:07.885Z,97739.16
2023-04-24T15:50:35.022Z,97734.22
2023-04-24T15:53:02.150Z,97732.84
2023-04-24T15:55:29.525Z,97727.91
2023-04-24T15:57:57.440Z,97719.94
2023-04-24T16:00:24.963Z,97722.34
2023-04-24T16:02:52.828Z,97722.84
2023-04-24T16:05:20.384Z,97717.66
2023-04-24T16:07:47.487Z,97714.34
2023-04-24T16:10:14.862Z,97717.03
2023-04-24T16:12:42.008Z,97702.09
2023-04-24T16:15:10.478Z,97699.59
2023-04-24T16:17:37.699Z,97699.84
2023-04-24T16:20:05.387Z,97686.59
2023-04-24T16:22:32.339Z,97689.03
2023-04-24T16:24:59.969Z,97677.63
2023-04-24T16:27:27.013Z,97678.16
2023-04-24T16:29:54.879Z,97679.19
2023-04-24T16:32:23.934Z,97680.78
2023-04-24T16:34:51.638Z,97685.66
2023-04-24T16:37:19.152Z,97682.66
2023-04-24T16:39:46.377Z,97686.72
2023-04-24T16:42:14.355Z,97679.34
2023-04-24T16:44:42.185Z,97668.75
2023-04-24T16:47:10.300Z,97677.13
2023-04-24T16:49:37.621Z,97658.69
2023-04-24T16:52:04.962Z,97664.31
2023-04-24T16:54:35.294Z,97653.50
2023-04-24T16:57:03.233Z,97649.19
2023-04-24T16:59:33.960Z,97656.84
2023-04-24T17:02:01.365Z,97654.16
2023-04-24T17:04:29.362Z,97643.41
2023-04-24T17:06:56.823Z,97640.47
2023-04-24T17:09:24.190Z,97639.16
2023-04-24T17:11:51.601Z,97628.56
2023-04-24T17:14:19.049Z,97624.50
2023-04-24T17:16:46.306Z,97624.50
2023-04-24T17:19:13.881Z,97613.34
2023-04-24T17:21:41.156Z,97609.28
2023-04-24T17:24:08.342Z,97609.50
2023-04-24T17:26:35.712Z,97607.34
2023-04-24T17:29:03.319Z,97617.34
2023-04-24T17:31:30.708Z,97608.16
2023-04-24T17:33:59.006Z,97605.16
2023-04-24T17:36:26.060Z,97595.41
2023-04-24T17:38:53.450Z,97592.97
2023-04-24T17:41:21.234Z,97588.94
2023-04-24T17:43:48.565Z,97587.03
2023-04-24T17:46:15.922Z,97596.03
2023-04-24T17:48:43.196Z,97592.53
2023-04-24T17:51:10.542Z,97609.06
2023-04-24T17:53:37.920Z,97613.13
2023-04-24T17:56:05.675Z,97661.38
2023-04-24T17:58:34.577Z,97647.50
2023-04-24T18:01:02.758Z,97640.97
2023-04-24T18:03:30.311Z,97630.41
2023-04-24T18:05:57.958Z,97625.47
2023-04-24T18:08:25.398Z,97624.38
2023-04-24T18:10:52.283Z,97613.28
2023-04-24T18:13:19.896Z,97615.78
2023-04-24T18:15:47.227Z,97612.81
2023-04-24T18:18:15.070Z,97600.56
2023-04-24T18:20:42.034Z,97598.09
2023-04-24T18:23:09.129Z,97589.72
2023-04-24T18:25:36.673Z,97589.75
2023-04-24T18:28:04.101Z,97586.00
2023-04-24T18:30:32.146Z,97597.13
2023-04-24T18:33:00.067Z,97601.19
2023-04-24T18:35:27.541Z,97598.22
2023-04-24T18:37:54.896Z,97602.56
2023-04-24T18:40:22.259Z,97596.59
2023-04-24T18:42:50.034Z,97586.31
2023-04-24T18:45:16.990Z,97584.13
2023-04-24T18:47:44.517Z,97573.28
2023-04-24T18:50:12.223Z,97567.28
2023-04-24T18:52:39.754Z,97570.00
2023-04-24T18:55:07.358Z,97571.34
2023-04-24T18:57:34.998Z,97570.78
2023-04-24T19:00:02.481Z,97583.22
2023-04-24T19:02:29.820Z,97587.53
2023-04-24T19:04:57.080Z,97583.47
2023-04-24T19:07:24.678Z,97592.13
2023-04-24T19:09:51.969Z,97578.53
2023-04-24T19:12:20.991Z,97585.03
2023-04-24T19:14:51.941Z,97587.72
2023-04-24T19:17:24.748Z,97571.50
2023-04-24T19:19:52.196Z,97586.38
2023-04-24T19:22:20.621Z,97597.22
2023-04-24T19:24:48.024Z,97601.31
2023-04-24T19:27:15.193Z,97599.44
2023-04-24T19:29:43.035Z,97588.34
2023-04-24T19:32:10.595Z,97588.88
2023-04-24T19:34:40.473Z,97594.84
2023-04-24T19:37:07.932Z,97587.28
2023-04-24T19:39:35.339Z,97602.72
2023-04-24T19:42:06.685Z,97598.94
2023-04-24T19:44:35.020Z,97600.56
2023-04-24T19:47:02.346Z,97612.22
2023-04-24T19:49:29.360Z,97623.31
2023-04-24T19:51:57.006Z,97625.47
2023-04-24T19:54:24.548Z,97613.53
2023-04-24T19:56:51.931Z,97603.53
2023-04-24T19:59:19.309Z,97587.00
2023-04-24T20:01:46.629Z,97579.69
2023-04-24T20:04:14.459Z,97593.78
2023-04-24T20:06:41.948Z,97600.81
2023-04-24T20:09:09.670Z,97595.94
2023-04-24T20:11:36.657Z,97594.88
2023-04-24T20:14:03.956Z,97583.78
2023-04-24T20:16:31.427Z,97568.34
2023-04-24T20:18:59.437Z,97565.66
2023-04-24T20:21:27.605Z,97574.59
2023-04-24T20:23:54.732Z,97578.91
2023-04-24T20:26:21.881Z,97584.84
2023-04-24T20:28:49.666Z,97585.09
2023-04-24T20:31:17.292Z,97593.97
2023-04-24T20:33:45.672Z,97591.22
2023-04-24T20:36:13.058Z,97584.66
2023-04-24T20:38:40.133Z,97587.28
2023-04-24T20:41:10.037Z,97589.63
2023-04-24T20:43:37.264Z,97600.31
2023-04-24T20:46:04.397Z,97606.22
2023-04-24T20:48:31.831Z,97602.91
2023-04-24T20:50:59.003Z,97604.97
2023-04-24T20:53:26.069Z,97605.13
2023-04-24T20:55:53.140Z,97603.22
2023-04-24T20:58:23.600Z,97593.91
2023-04-24T21:00:51.506Z,97585.50
2023-04-24T21:03:19.582Z,97588.72
2023-04-24T21:05:46.729Z,97594.63
2023-04-24T21:08:13.793Z,97587.34
2023-04-24T21:10:41.465Z,97580.34
2023-04-24T21:13:08.695Z,97585.50
2023-04-24T21:15:36.077Z,97587.69
2023-04-24T21:18:03.313Z,97591.22
2023-04-24T21:20:30.584Z,97592.88
2023-04-24T21:22:57.723Z,97594.50
2023-04-24T21:25:24.707Z,97592.03
2023-04-24T21:27:52.082Z,97590.41
2023-04-24T21:30:22.035Z,97599.91
2023-04-24T21:32:49.383Z,97589.44
2023-04-24T21:35:16.723Z,97599.81
2023-04-24T21:37:44.136Z,97602.03
2023-04-24T21:40:11.231Z,97598.00
2023-04-24T21:42:39.143Z,97600.69
2023-04-24T21:45:07.104Z,97598.81
2023-04-24T21:47:34.480Z,97598.56
2023-04-24T21:50:01.948Z,97604.22
2023-04-24T21:52:29.247Z,97598.81
2023-04-24T21:54:56.453Z,97605.03
2023-04-24T21:57:24.084Z,97591.78
2023-04-24T21:59:51.528Z,97589.59
2023-04-24T22:02:18.811Z,97585.25
2023-04-24T22:04:46.346Z,97590.09
2023-04-24T22:07:13.591Z,97604.97
2023-04-24T22:09:40.973Z,97594.66
2023-04-24T22:12:08.328Z,97601.38
2023-04-24T22:14:35.608Z,97596.22
2023-04-24T22:17:02.958Z,97585.22
2023-04-24T22:19:30.807Z,97597.97
2023-04-24T22:21:58.118Z,97600.44
2023-04-24T22:24:25.373Z,97593.72
2023-04-24T22:26:52.910Z,97588.63
2023-04-24T22:29:20.206Z,97585.41
2023-04-24T22:31:47.191Z,97592.69
2023-04-24T22:34:16.785Z,97587.28
2023-04-24T22:36:43.852Z,97583.47
2023-04-24T22:39:15.857Z,97584.56
2023-04-24T22:41:43.145Z,97596.44
2023-04-24T22:44:10.781Z,97581.28
2023-04-24T22:46:38.325Z,97583.41
2023-04-24T22:49:05.733Z,97586.94
2023-04-24T22:51:33.250Z,97584.22
2023-04-24T22:54:02.624Z,97582.28
2023-04-24T22:56:30.102Z,97587.69
2023-04-24T22:58:58.305Z,97583.38
2023-04-24T23:01:28.356Z,97586.06
2023-04-24T23:03:56.373Z,97582.00
2023-04-24T23:06:23.872Z,97580.94
2023-04-24T23:08:51.199Z,97578.78
2023-04-24T23:11:19.885Z,97578.53
2023-04-24T23:13:47.208Z,97570.41
2023-04-24T23:16:14.826Z,97577.44
2023-04-24T23:18:42.416Z,97575.56
2023-04-24T23:21:09.408Z,97568.59
2023-04-24T23:23:36.764Z,97558.34
2023-04-24T23:26:04.307Z,97563.75
2023-04-24T23:28:31.539Z,97560.47
2023-04-24T23:30:58.865Z,97551.03
2023-04-24T23:33:27.981Z,97569.91
2023-04-24T23:35:55.727Z,97583.41
2023-04-24T23:38:22.760Z,97556.44
2023-04-24T23:40:53.326Z,97557.28
2023-04-24T23:43:20.666Z,97558.09
2023-04-24T23:45:48.058Z,97548.09
2023-04-24T23:48:15.178Z,97554.31
2023-04-24T23:50:43.559Z,97552.72
2023-04-24T23:53:10.714Z,97554.13
2023-04-24T23:55:38.330Z,97552.25
2023-04-24T23:58:05.733Z,97555.75
